Time;durP1;ratioP1;P1;durP2;ratioP2;P2;SDS_P1;SDS_P2;PMS_P1;PMS_P2;Temp;Humidity;BMP_temperature;BMP_pressure;BME280_temperature;BME280_humidity;BME280_pressure;Samples;Min_cycle;Max_cycle;Signal;HPM_P1;HPM_P2
2023/07/05 00:01:23;;;;;;;11.88;8.75;;;;;;;21.99;98.81;65299.72;5091273;28;20287;-58
2023/07/05 00:03:49;;;;;;;12.32;8.70;;;;;;;21.91;98.84;65293.97;5091180;28;20656;-58
2023/07/05 00:06:15;;;;;;;9.70;8.55;;;;;;;22.02;97.70;65303.03;5091327;28;20315;-57
2023/07/05 00:08:40;;;;;;;10.10;8.00;;;;;;;21.93;98.28;65296.19;5091620;28;20745;-59
2023/07/05 00:11:08;;;;;;;9.52;8.05;;;;;;;21.81;100.00;65282.91;5091486;28;20689;-60
2023/07/05 00:13:34;;;;;;;11.13;8.98;;;;;;;21.89;100.00;65291.78;5090987;28;20203;-56
2023/07/05 00:16:00;;;;;;;13.43;9.05;;;;;;;21.97;99.52;65298.06;5091150;28;20200;-57
2023/07/05 00:18:26;;;;;;;10.90;8.70;;;;;;;21.90;99.53;65294.91;5091046;28;20596;-58
2023/07/05 00:20:52;;;;;;;9.50;8.05;;;;;;;21.95;99.68;65295.28;5091150;28;20689;-58
2023/07/05 00:23:18;;;;;;;10.45;8.50;;;;;;;21.73;100.00;65271.47;5091003;28;20234;-58
2023/07/05 00:25:43;;;;;;;9.82;8.77;;;;;;;21.65;100.00;65265.72;5091054;28;20284;-59
2023/07/05 00:28:09;;;;;;;10.63;8.80;;;;;;;21.48;100.00;65246.94;5091207;28;20584;-62
2023/07/05 00:30:34;;;;;;;9.50;8.50;;;;;;;21.36;100.00;65233.66;5091338;28;20348;-62
2023/07/05 00:32:59;;;;;;;11.70;8.90;;;;;;;21.24;100.00;65220.41;5091392;28;20569;-58
2023/07/05 00:35:25;;;;;;;12.32;9.13;;;;;;;21.20;100.00;65215.41;5091338;28;20288;-58
2023/07/05 00:37:50;;;;;;;10.27;8.90;;;;;;;21.30;100.00;65224.47;5072663;28;20695;-57
2023/07/05 00:40:16;;;;;;;14.65;10.02;;;;;;;21.30;100.00;65227.03;5091089;28;20222;-57
2023/07/05 00:42:42;;;;;;;9.82;8.82;;;;;;;21.36;100.00;65228.53;5090583;28;20280;-59
2023/07/05 00:45:11;;;;;;;12.25;9.25;;;;;;;21.33;100.00;65227.78;5090988;28;20204;-59
2023/07/05 00:47:39;;;;;;;11.05;9.05;;;;;;;21.34;100.00;65231.44;5072589;28;20208;-58
2023/07/05 00:50:21;;;;;;;12.30;8.77;;;;;;;21.37;100.00;65234.22;5090883;28;20224;-58
2023/07/05 00:52:47;;;;;;;9.57;8.57;;;;;;;21.42;100.00;65240.31;5094438;28;20216;-58
2023/07/05 00:55:13;;;;;;;9.73;8.45;;;;;;;21.36;100.00;65230.53;5094823;28;20242;-62
2023/07/05 00:57:42;;;;;;;11.90;9.38;;;;;;;21.25;100.00;65221.50;5094121;28;20231;-61
2023/07/05 01:00:12;;;;;;;10.52;9.38;;;;;;;21.39;100.00;65239.53;5094588;28;20211;-61
2023/07/05 01:02:40;;;;;;;12.30;9.55;;;;;;;21.49;100.00;65245.47;5076677;28;20220;-61
2023/07/05 01:05:08;;;;;;;11.20;9.35;;;;;;;21.51;100.00;65247.69;5075791;28;20250;-61
2023/07/05 01:07:33;;;;;;;10.48;9.38;;;;;;;21.44;100.00;65241.94;5094386;28;20261;-63
2023/07/05 01:09:59;;;;;;;10.38;9.27;;;;;;;21.43;100.00;65241.41;5094147;28;20219;-59
2023/07/05 01:12:35;;;;;;;14.82;10.05;;;;;;;21.33;100.00;65227.78;5094041;28;20734;-58
2023/07/05 01:15:15;;;;;;;11.68;9.43;;;;;;;21.37;100.00;65231.66;5094568;28;20204;-58
2023/07/05 01:17:50;;;;;;;11.13;9.85;;;;;;;21.39;100.00;65233.88;5093933;28;20272;-58
2023/07/05 01:20:31;;;;;;;11.18;10.02;;;;;;;21.39;100.00;65236.97;5094313;28;20190;-57
2023/07/05 01:23:12;;;;;;;11.50;9.07;;;;;;;21.44;100.00;65242.50;5093951;28;20693;-58
2023/07/05 01:25:59;;;;;;;10.57;8.82;;;;;;;21.41;100.00;65236.63;5075748;28;20223;-58
2023/07/05 01:28:40;;;;;;;13.60;10.32;;;;;;;21.43;100.00;65238.84;5093740;28;20224;-57
2023/07/05 01:31:31;;;;;;;11.93;9.60;;;;;;;21.55;100.00;65251.56;5093585;28;20219;-59
2023/07/05 01:34:08;;;;;;;13.25;9.38;;;;;;;21.31;100.00;65227.59;5092821;28;20277;-58
2023/07/05 01:36:35;;;;;;;12.15;9.32;;;;;;;21.36;100.00;65231.09;5093523;28;20200;-59
2023/07/05 01:39:00;;;;;;;11.65;10.25;;;;;;;21.33;100.00;65227.78;5093674;28;20212;-59
2023/07/05 01:41:33;;;;;;;11.75;10.10;;;;;;;21.33;100.00;65230.34;5093855;28;20203;-58
2023/07/05 01:43:59;;;;;;;11.98;9.55;;;;;;;21.35;100.00;65232.56;5093468;28;20234;-58
2023/07/05 01:46:39;;;;;;;11.63;10.00;;;;;;;21.36;100.00;65231.09;5093796;28;20685;-62
2023/07/05 01:49:26;;;;;;;10.80;8.93;;;;;;;21.51;100.00;65252.28;5093823;28;20223;-62
2023/07/05 01:52:05;;;;;;;12.65;9.77;;;;;;;21.56;100.00;65252.66;5093710;28;20208;-62
2023/07/05 01:54:58;;;;;;;12.25;10.77;;;;;;;21.37;100.00;65234.75;5093389;28;20212;-61
2023/07/05 01:57:33;;;;;;;11.65;9.75;;;;;;;21.44;100.00;65244.53;5093253;28;20204;-62
2023/07/05 02:00:08;;;;;;;10.25;9.25;;;;;;;21.43;100.00;65238.28;5093913;28;20208;-63
2023/07/05 02:02:38;;;;;;;11.82;10.63;;;;;;;21.49;100.00;65250.59;5092697;28;20215;-62
2023/07/05 02:05:05;;;;;;;12.60;9.95;;;;;;;21.30;100.00;65224.47;5093394;28;20265;-62
2023/07/05 02:07:32;;;;;;;12.15;9.77;;;;;;;21.07;100.00;65199.03;5093299;28;20198;-66
2023/07/05 02:09:58;;;;;;;12.68;10.20;;;;;;;20.93;100.00;65183.53;5093329;28;20222;-61
2023/07/05 02:12:24;;;;;;;11.57;10.07;;;;;;;20.86;100.00;65176.34;5093020;28;20204;-63
2023/07/05 02:14:51;;;;;;;11.63;9.65;;;;;;;20.80;100.00;65171.72;5092867;28;20212;-62
2023/07/05 02:17:20;;;;;;;11.75;10.43;;;;;;;20.71;100.00;65161.75;5092939;28;20219;-62
2023/07/05 02:19:46;;;;;;;12.25;10.18;;;;;;;20.86;100.00;65175.78;5074768;28;20273;-61
2023/07/05 02:22:12;;;;;;;11.75;10.30;;;;;;;20.87;100.00;65176.88;5092902;28;20195;-62
2023/07/05 02:24:37;;;;;;;14.25;10.20;;;;;;;20.84;100.00;65176.16;5092837;28;20326;-62
2023/07/05 02:27:03;;;;;;;12.98;9.75;;;;;;;20.79;100.00;65170.59;5093153;28;20274;-62
2023/07/05 02:29:30;;;;;;;13.38;10.60;;;;;;;20.77;100.00;65166.41;5092930;28;20298;-62
2023/07/05 02:31:56;;;;;;;12.27;10.05;;;;;;;20.82;100.00;65171.38;5093059;28;20279;-63
2023/07/05 02:34:22;;;;;;;13.10;9.73;;;;;;;20.87;100.00;65177.44;5092625;28;20284;-61
2023/07/05 02:36:48;;;;;;;11.32;10.15;;;;;;;20.88;100.00;65178.56;5092721;28;20634;-61
2023/07/05 02:39:13;;;;;;;13.50;10.23;;;;;;;20.91;100.00;65183.88;5092678;28;20216;-63
2023/07/05 02:41:39;;;;;;;11.27;10.07;;;;;;;20.99;100.00;65192.72;5074660;28;20204;-63
2023/07/05 02:44:05;;;;;;;12.55;9.75;;;;;;;21.01;100.00;65197.50;5074520;28;20249;-59
2023/07/05 02:46:31;;;;;;;13.50;10.73;;;;;;;21.01;100.00;65194.41;5092685;28;20200;-58
2023/07/05 02:48:57;;;;;;;13.30;10.88;;;;;;;20.96;100.00;65189.41;5092403;28;20208;-58
2023/07/05 02:51:24;;;;;;;13.77;10.60;;;;;;;20.58;100.00;65145.38;5092493;28;20207;-57
2023/07/05 02:53:50;;;;;;;11.55;9.68;;;;;;;20.88;100.00;65178.56;5092424;28;20203;-57
2023/07/05 02:56:15;;;;;;;12.50;10.63;;;;;;;20.87;100.00;65179.47;5092489;28;20211;-58
2023/07/05 02:58:41;;;;;;;13.18;10.63;;;;;;;20.89;100.00;65181.66;5092379;28;20220;-59
2023/07/05 03:01:06;;;;;;;12.75;10.15;;;;;;;20.93;100.00;65181.53;5092448;28;20674;-58
2023/07/05 03:03:32;;;;;;;12.23;10.57;;;;;;;20.85;100.00;65175.25;5092104;28;20211;-59
2023/07/05 03:05:59;;;;;;;14.82;10.73;;;;;;;20.83;100.00;65178.16;5092498;28;20177;-57
2023/07/05 03:08:26;;;;;;;13.90;10.15;;;;;;;20.80;100.00;65172.28;5092450;28;20230;-59
2023/07/05 03:10:52;;;;;;;17.75;11.35;;;;;;;20.64;100.00;65151.47;5092637;28;20212;-62
2023/07/05 03:13:18;;;;;;;14.88;10.80;;;;;;;20.56;100.00;65142.63;5091351;28;20208;-63
2023/07/05 03:15:44;;;;;;;19.35;14.27;;;;;;;20.62;100.00;65152.38;5091746;28;20278;-61
2023/07/05 03:18:09;;;;;;;44.25;22.88;;;;;;;20.64;100.00;65154.59;5092072;28;20211;-63
2023/07/05 03:20:34;;;;;;;42.65;25.38;;;;;;;20.54;100.00;65143.00;5092275;28;20707;-64
2023/07/05 03:23:00;;;;;;;35.58;20.52;;;;;;;20.58;100.00;65147.41;5092099;28;20200;-62
2023/07/05 03:25:25;;;;;;;39.45;21.65;;;;;;;20.53;100.00;65139.88;5092073;28;20204;-60
2023/07/05 03:27:51;;;;;;;26.65;14.35;;;;;;;20.63;100.00;65150.38;5091850;28;20633;-60
2023/07/05 03:30:16;;;;;;;14.25;11.45;;;;;;;20.50;100.00;65141.13;5091795;28;20216;-61
2023/07/05 03:32:43;;;;;;;18.27;12.77;;;;;;;20.61;100.00;65150.72;5091879;28;20283;-61
2023/07/05 03:35:09;;;;;;;19.88;13.27;;;;;;;20.50;100.00;65141.13;5092021;28;20204;-58
2023/07/05 03:37:34;;;;;;;28.98;18.15;;;;;;;20.46;100.00;65134.16;5091688;28;20202;-62
2023/07/05 03:40:00;;;;;;;22.85;14.98;;;;;;;20.79;100.00;65173.72;5092272;28;20273;-63
2023/07/05 03:42:25;;;;;;;24.35;15.57;;;;;;;21.10;100.00;65202.34;5091810;28;20192;-64
2023/07/05 03:44:50;;;;;;;21.52;14.50;;;;;;;21.43;100.00;65243.97;5073483;28;20662;-62
2023/07/05 03:47:16;;;;;;;21.75;15.13;;;;;;;21.77;100.00;65279.00;5091690;28;20283;-58
2023/07/05 03:49:41;;;;;;;17.52;11.73;;;;;;;21.89;100.00;65291.22;5091300;28;20216;-59
2023/07/05 03:52:09;;;;;;;16.42;12.20;;;;;;;22.10;100.00;65309.31;5091655;28;20692;-59
2023/07/05 03:54:35;;;;;;;25.23;15.70;;;;;;;22.66;100.00;65373.91;5091713;28;20219;-59
2023/07/05 03:57:00;;;;;;;23.92;16.20;;;;;;;22.09;100.00;65313.34;5091511;28;20207;-58
2023/07/05 03:59:26;;;;;;;21.55;15.00;;;;;;;21.98;100.00;65301.19;5091569;28;20700;-58
2023/07/05 04:01:51;;;;;;;19.75;14.18;;;;;;;21.68;100.00;65269.06;5091425;28;20230;-63
2023/07/05 04:04:16;;;;;;;24.85;14.82;;;;;;;21.51;100.00;65250.25;5091425;28;20574;-60
2023/07/05 04:06:42;;;;;;;19.90;13.55;;;;;;;21.73;100.00;65274.59;5091532;28;20245;-61
2023/07/05 04:09:07;;;;;;;17.10;12.85;;;;;;;21.70;100.00;65268.72;5073160;28;20302;-60
2023/07/05 04:11:33;;;;;;;17.65;12.13;;;;;;;21.70;100.00;65268.16;5091656;28;20265;-59
2023/07/05 04:13:58;;;;;;;20.73;14.65;;;;;;;21.48;100.00;65246.94;5091390;28;20639;-57
2023/07/05 04:16:25;;;;;;;23.85;16.42;;;;;;;21.67;100.00;65269.97;5091353;28;20203;-58
2023/07/05 04:18:53;;;;;;;32.75;19.15;;;;;;;21.81;100.00;65279.78;5091166;28;20239;-59
2023/07/05 04:21:19;;;;;;;43.20;26.88;;;;;;;21.77;100.00;65279.00;5091280;28;20795;-60
2023/07/05 04:23:45;;;;;;;27.48;20.63;;;;;;;21.84;100.00;65285.66;5091039;28;20242;-59
2023/07/05 04:26:13;;;;;;;27.02;19.50;;;;;;;21.97;100.00;65297.50;5090997;28;20226;-59
2023/07/05 04:28:39;;;;;;;19.15;15.93;;;;;;;22.12;100.00;65317.22;5090923;28;20203;-58
2023/07/05 04:31:09;;;;;;;25.98;16.95;;;;;;;22.08;100.00;65309.69;5090960;28;20243;-58
2023/07/05 04:33:34;;;;;;;28.10;17.35;;;;;;;22.02;100.00;65306.16;5090742;28;20210;-59
2023/07/05 04:36:01;;;;;;;25.13;16.23;;;;;;;21.94;100.00;65296.75;5090952;28;20259;-58
2023/07/05 04:38:26;;;;;;;19.65;13.90;;;;;;;22.40;100.00;65345.09;5090812;28;20709;-59
2023/07/05 04:40:53;;;;;;;21.80;14.52;;;;;;;22.43;100.00;65348.41;5091112;28;20210;-59
2023/07/05 04:43:19;;;;;;;26.48;15.13;;;;;;;22.49;100.00;65357.63;5090843;28;20302;-59
2023/07/05 04:45:51;;;;;;;15.43;12.30;;;;;;;22.74;100.00;65382.75;5091197;28;20231;-63
2023/07/05 04:48:18;;;;;;;13.57;10.77;;;;;;;22.59;100.00;65365.59;5090783;28;20222;-62
2023/07/05 04:50:44;;;;;;;18.33;11.95;;;;;;;22.33;100.00;65337.91;5090893;28;20705;-64
2023/07/05 04:53:09;;;;;;;21.30;12.32;;;;;;;22.42;100.00;65347.84;5090469;28;20627;-63
2023/07/05 04:55:35;;;;;;;16.20;11.35;;;;;;;22.51;100.00;65359.84;5090690;28;20216;-62
2023/07/05 04:58:03;;;;;;;16.60;11.25;;;;;;;22.45;100.00;65350.63;5090528;28;20698;-62
2023/07/05 05:00:29;;;;;;;17.52;11.40;;;;;;;22.25;100.00;65331.06;5090842;28;20204;-63
2023/07/05 05:02:55;;;;;;;11.30;10.18;;;;;;;22.16;100.00;65321.09;5090203;28;20218;-64
2023/07/05 05:05:20;;;;;;;16.98;10.48;;;;;;;22.21;100.00;65324.06;5091084;28;20192;-58
2023/07/05 05:07:46;;;;;;;14.32;11.35;;;;;;;22.26;100.00;65330.13;5090370;28;20561;-59
2023/07/05 05:10:11;;;;;;;16.67;11.57;;;;;;;22.37;100.00;65344.34;5090464;28;20640;-59
2023/07/05 05:12:37;;;;;;;15.82;11.23;;;;;;;22.58;100.00;65367.63;5090244;28;20287;-60
2023/07/05 05:15:02;;;;;;;18.80;11.32;;;;;;;22.65;100.00;65374.78;5072165;28;20675;-58
2023/07/05 05:17:28;;;;;;;14.55;11.05;;;;;;;22.67;100.00;65372.44;5090258;28;20227;-61
2023/07/05 05:19:53;;;;;;;23.52;14.70;;;;;;;22.68;100.00;65376.13;5090419;28;20200;-59
2023/07/05 05:22:18;;;;;;;15.82;11.35;;;;;;;22.64;100.00;65374.25;5090149;28;20200;-59
2023/07/05 05:24:44;;;;;;;15.77;11.95;;;;;;;22.91;100.00;65404.16;5090150;28;20690;-59
2023/07/05 05:27:09;;;;;;;12.77;11.00;;;;;;;22.61;100.00;65367.78;5090155;28;20620;-58
2023/07/05 05:29:35;;;;;;;13.95;10.35;;;;;;;22.39;100.00;65343.97;5090194;28;20580;-58
2023/07/05 05:32:00;;;;;;;12.75;10.70;;;;;;;22.73;100.00;65384.22;5090669;28;20203;-61
2023/07/05 05:34:27;;;;;;;11.63;9.55;;;;;;;22.68;100.00;65378.13;5089947;28;20822;-62
2023/07/05 05:36:52;;;;;;;15.13;11.30;;;;;;;22.50;100.00;65358.72;5090781;28;20221;-62
2023/07/05 05:39:18;;;;;;;18.30;12.15;;;;;;;22.27;100.00;65331.25;5093387;28;20212;-61
2023/07/05 05:41:44;;;;;;;16.92;12.45;;;;;;;22.16;100.00;65318.53;5092665;28;20196;-60
2023/07/05 05:44:09;;;;;;;13.25;11.50;;;;;;;22.14;100.00;65318.88;5091834;28;20227;-60
2023/07/05 05:46:34;;;;;;;15.07;11.10;;;;;;;22.14;100.00;65316.31;5093622;28;20211;-63
2023/07/05 05:49:00;;;;;;;16.85;12.52;;;;;;;22.22;100.00;65325.72;5091756;28;20219;-63
2023/07/05 05:51:26;;;;;;;15.90;12.13;;;;;;;22.20;100.00;65325.53;5093310;28;20215;-63
2023/07/05 05:53:51;;;;;;;16.77;11.88;;;;;;;22.27;100.00;65333.81;5093420;28;20749;-61
2023/07/05 05:56:18;;;;;;;15.13;11.18;;;;;;;22.43;100.00;65354.09;5093444;28;20188;-58
2023/07/05 05:58:43;;;;;;;14.20;12.23;;;;;;;22.25;100.00;65331.06;5093239;28;20220;-59
2023/07/05 06:01:12;;;;;;;17.92;11.38;;;;;;;22.42;100.00;65347.31;5093377;28;20188;-58
2023/07/05 06:03:38;;;;;;;14.63;12.38;;;;;;;22.35;100.00;65336.97;5093095;28;20207;-59
2023/07/05 06:06:03;;;;;;;21.10;11.90;;;;;;;22.45;100.00;65353.19;5093294;28;20187;-58
2023/07/05 06:08:29;;;;;;;13.15;10.73;;;;;;;22.60;100.00;65369.28;5093309;28;20592;-63
2023/07/05 06:10:59;;;;;;;14.98;12.07;;;;;;;22.46;100.00;65354.31;5093369;28;20220;-64
2023/07/05 06:13:26;;;;;;;16.50;12.85;;;;;;;22.43;100.00;65354.09;5093311;28;20282;-64
2023/07/05 06:15:57;;;;;;;14.98;12.65;;;;;;;22.40;100.00;65345.09;5093369;28;20243;-58
2023/07/05 06:18:22;;;;;;;14.82;12.30;;;;;;;22.49;100.00;65360.19;5092977;28;20204;-58
2023/07/05 06:20:47;;;;;;;17.38;12.30;;;;;;;22.66;100.00;65376.47;5093132;28;20696;-58
2023/07/05 06:23:13;;;;;;;16.83;12.48;;;;;;;22.95;100.00;65408.00;5092787;28;20291;-59
2023/07/05 06:25:38;;;;;;;15.68;12.13;;;;;;;23.12;100.00;65424.84;5093055;28;20200;-59
2023/07/05 06:28:04;;;;;;;20.52;11.93;;;;;;;23.05;100.00;65417.09;5092890;28;20207;-65
2023/07/05 06:30:30;;;;;;;15.13;11.93;;;;;;;23.04;100.00;65415.44;5093476;28;20222;-64
2023/07/05 06:32:55;;;;;;;19.38;12.25;;;;;;;23.17;100.00;65432.94;5074640;28;20708;-60
2023/07/05 06:35:21;;;;;;;15.30;11.68;;;;;;;23.28;100.00;65442.00;5093176;28;20292;-61
2023/07/05 06:37:46;;;;;;;17.77;12.32;;;;;;;23.37;100.00;65451.44;5092783;28;20204;-61
2023/07/05 06:40:12;;;;;;;15.35;11.02;;;;;;;23.26;100.00;65440.34;5092977;28;20200;-64
2023/07/05 06:42:37;;;;;;;19.00;12.30;;;;;;;23.37;100.00;65449.44;5092724;28;20215;-63
2023/07/05 06:45:03;;;;;;;20.65;12.88;;;;;;;23.34;100.00;65449.25;5092830;28;20279;-62
2023/07/05 06:47:29;;;;;;;14.70;11.20;;;;;;;23.58;100.00;65475.28;5092607;28;20215;-58
2023/07/05 06:49:54;;;;;;;16.13;11.68;;;;;;;23.62;100.00;65479.69;5092396;28;20370;-63
2023/07/05 06:52:20;;;;;;;13.85;11.15;;;;;;;23.77;100.00;65495.78;5092551;28;20584;-64
2023/07/05 06:54:46;;;;;;;16.08;11.07;;;;;;;23.75;100.00;65494.13;5074605;28;20215;-61
2023/07/05 06:57:11;;;;;;;15.10;10.60;;;;;;;23.71;100.00;65489.69;5092615;28;20196;-63
2023/07/05 06:59:37;;;;;;;18.60;11.65;;;;;;;23.72;100.00;65490.22;5092449;28;20221;-61
2023/07/05 07:02:03;;;;;;;16.50;11.15;;;;;;;23.66;100.00;65486.16;5092176;28;20200;-62
2023/07/05 07:04:29;;;;;;;14.23;11.10;;;;;;;23.80;100.00;65502.22;5073777;28;20218;-60
2023/07/05 07:06:55;;;;;;;16.63;12.35;;;;;;;23.86;100.00;65505.75;5092013;28;20204;-60
2023/07/05 07:09:21;;;;;;;14.60;11.52;;;;;;;23.95;100.00;65515.72;5092059;28;20216;-63
2023/07/05 07:11:46;;;;;;;14.73;11.73;;;;;;;23.97;100.00;65515.94;5092139;28;20647;-63
2023/07/05 07:14:12;;;;;;;16.95;11.15;;;;;;;24.20;100.00;65542.91;5091970;28;20290;-63
2023/07/05 07:16:38;;;;;;;14.60;10.75;;;;;;;24.16;100.00;65541.59;5092159;28;20218;-65
2023/07/05 07:19:03;;;;;;;13.13;10.98;;;;;;;24.24;100.00;65547.88;5091927;28;20216;-63
2023/07/05 07:21:29;;;;;;;21.67;11.27;;;;;;;24.31;100.00;65549.94;5091887;28;20673;-62
2023/07/05 07:23:54;;;;;;;21.13;13.70;;;;;;;24.38;100.00;65563.41;5091908;28;20254;-60
2023/07/05 07:26:23;;;;;;;13.50;10.43;;;;;;;24.55;99.56;65582.28;5091771;28;20622;-58
2023/07/05 07:28:54;;;;;;;15.65;9.93;;;;;;;24.78;97.15;65607.25;5091835;28;20203;-58
2023/07/05 07:31:30;;;;;;;16.17;9.65;;;;;;;24.93;91.98;65624.44;5092099;28;20246;-59
2023/07/05 07:33:57;;;;;;;14.77;10.20;;;;;;;24.94;92.84;65625.56;5091693;28;20226;-59
2023/07/05 07:36:25;;;;;;;14.05;10.48;;;;;;;24.91;94.00;65622.22;5091985;28;20200;-59
2023/07/05 07:38:52;;;;;;;12.63;11.15;;;;;;;24.88;96.09;65618.34;5073410;28;20220;-59
2023/07/05 07:41:23;;;;;;;18.25;10.55;;;;;;;24.95;98.45;65626.66;5091665;28;20204;-58
2023/07/05 07:43:59;;;;;;;11.65;9.70;;;;;;;25.27;96.30;65661.09;5073297;28;20218;-61
2023/07/05 07:46:26;;;;;;;18.55;10.98;;;;;;;25.30;96.63;65664.41;5091407;28;20214;-62
2023/07/05 07:48:55;;;;;;;15.52;10.95;;;;;;;25.34;95.95;65669.41;5091295;28;20218;-61
2023/07/05 07:51:23;;;;;;;16.17;10.77;;;;;;;25.30;95.73;65664.97;5091332;28;20212;-58
2023/07/05 07:53:52;;;;;;;14.77;10.70;;;;;;;25.44;93.45;65680.53;5091344;28;20631;-61
2023/07/05 07:56:21;;;;;;;19.15;9.80;;;;;;;25.51;94.96;65688.28;5091391;28;20183;-61
2023/07/05 07:58:49;;;;;;;15.35;11.05;;;;;;;25.68;91.30;65707.16;5091543;28;20214;-60
2023/07/05 08:01:14;;;;;;;14.38;10.35;;;;;;;25.62;94.95;65697.34;5090836;28;20245;-59
2023/07/05 08:03:40;;;;;;;14.70;11.27;;;;;;;25.54;93.84;65689.03;5091276;28;20212;-60
2023/07/05 08:06:06;;;;;;;14.57;11.13;;;;;;;25.59;93.40;65694.03;5091537;28;20204;-62
2023/07/05 08:08:34;;;;;;;15.48;11.55;;;;;;;25.70;92.65;65709.38;5091020;28;20204;-62
2023/07/05 08:11:02;;;;;;;14.15;11.27;;;;;;;25.78;91.78;65715.13;5091126;28;20303;-62
2023/07/05 08:13:28;;;;;;;22.83;17.48;;;;;;;25.74;90.65;65713.25;5073201;28;20321;-61
2023/07/05 08:15:53;;;;;;;13.27;11.02;;;;;;;26.00;91.06;65741.59;5091066;28;20204;-61
2023/07/05 08:18:18;;;;;;;13.10;10.65;;;;;;;25.89;90.51;65729.94;5091070;28;20230;-61
2023/07/05 08:20:44;;;;;;;16.27;12.88;;;;;;;25.96;91.68;65735.09;5090965;28;20200;-60
2023/07/05 08:23:09;;;;;;;12.27;10.13;;;;;;;25.99;90.35;65740.47;5090842;28;20208;-63
2023/07/05 08:25:37;;;;;;;12.52;11.00;;;;;;;26.11;90.84;65754.38;5091285;28;20665;-64
2023/07/05 08:28:02;;;;;;;14.32;11.32;;;;;;;26.25;88.24;65767.34;5090869;28;20597;-62
2023/07/05 08:30:28;;;;;;;12.77;10.27;;;;;;;26.34;83.12;65779.91;5091205;28;20218;-59
2023/07/05 08:33:02;;;;;;;12.23;9.35;;;;;;;26.52;81.05;65794.75;5090647;28;20652;-59
2023/07/05 08:35:27;;;;;;;10.13;9.13;;;;;;;26.49;81.99;65793.44;5091044;28;20226;-60
2023/07/05 08:37:52;;;;;;;12.32;9.13;;;;;;;26.55;77.61;65800.09;5090773;28;20200;-58
2023/07/05 08:40:18;;;;;;;11.55;9.25;;;;;;;26.41;78.17;65784.56;5090860;28;20208;-60
2023/07/05 08:42:59;;;;;;;10.77;9.40;;;;;;;26.41;81.42;65787.16;5090657;28;20219;-59
2023/07/05 08:45:46;;;;;;;16.30;10.48;;;;;;;26.61;81.06;65807.34;5072750;28;20203;-59
2023/07/05 08:48:15;;;;;;;10.90;9.80;;;;;;;26.95;80.75;65846.59;5091003;28;20203;-64
2023/07/05 08:50:44;;;;;;;12.27;9.43;;;;;;;26.96;81.20;65845.69;5090984;28;20212;-65
2023/07/05 08:53:18;;;;;;;11.77;9.73;;;;;;;27.12;77.77;65865.50;5090732;28;20273;-62
2023/07/05 08:56:02;;;;;;;14.00;9.70;;;;;;;27.08;77.68;65859.03;5090800;28;20222;-62
2023/07/05 08:58:40;;;;;;;10.32;8.73;;;;;;;27.05;75.84;65855.69;5090671;28;20295;-59
2023/07/05 09:01:13;;;;;;;10.80;9.48;;;;;;;27.23;79.99;65875.16;5090910;28;20269;-59
2023/07/05 09:03:39;;;;;;;10.80;9.65;;;;;;;27.40;80.67;65896.66;5090519;28;20212;-62
2023/07/05 09:06:18;;;;;;;11.90;8.50;;;;;;;27.53;77.07;65911.13;5090490;28;20180;-62
2023/07/05 09:09:11;;;;;;;9.45;8.45;;;;;;;27.65;75.41;65924.47;5090579;28;20212;-61
2023/07/05 09:11:55;;;;;;;11.30;9.68;;;;;;;27.80;74.80;65940.59;5090856;28;20264;-60
2023/07/05 09:14:42;;;;;;;11.93;8.82;;;;;;;27.82;76.60;65943.38;5094006;28;20204;-64
2023/07/05 09:17:39;;;;;;;11.93;9.00;;;;;;;28.00;72.50;65957.66;5094081;28;20204;-63
2023/07/05 09:20:31;;;;;;;12.07;8.75;;;;;;;27.77;74.60;65932.06;5094219;28;20212;-62
2023/07/05 09:23:01;;;;;;;10.60;8.85;;;;;;;27.86;73.04;65947.81;5093922;28;20204;-60
2023/07/05 09:25:30;;;;;;;11.82;8.93;;;;;;;27.60;75.43;65916.31;5093638;28;20211;-62
2023/07/05 09:28:31;;;;;;;12.63;8.43;;;;;;;27.77;74.56;65934.66;5093813;28;20208;-59
2023/07/05 09:31:07;;;;;;;11.45;8.13;;;;;;;27.54;74.90;65909.63;5076340;28;20306;-64
2023/07/05 09:33:41;;;;;;;13.95;8.25;;;;;;;27.58;75.42;65916.69;5093259;28;20677;-63
2023/07/05 09:36:22;;;;;;;11.07;8.52;;;;;;;27.23;76.20;65878.28;5093619;28;20680;-64
2023/07/05 09:38:54;;;;;;;11.98;8.70;;;;;;;27.49;76.60;65904.09;5093443;28;20211;-61
2023/07/05 09:41:33;;;;;;;11.15;8.57;;;;;;;27.56;77.23;65911.28;5093662;28;20207;-61
2023/07/05 09:43:58;;;;;;;12.02;8.40;;;;;;;27.49;74.16;65906.13;5093526;28;20216;-61
2023/07/05 09:46:31;;;;;;;10.45;9.30;;;;;;;27.55;76.17;65913.34;5093392;28;20207;-62
2023/07/05 09:48:57;;;;;;;9.20;8.15;;;;;;;27.49;75.18;65904.09;5093219;28;20204;-61
2023/07/05 09:51:22;;;;;;;9.98;8.95;;;;;;;27.45;76.50;65901.66;5093394;28;20579;-62
2023/07/05 09:54:08;;;;;;;13.45;8.93;;;;;;;27.35;78.41;65888.53;5093294;28;20249;-61
2023/07/05 09:56:54;;;;;;;12.63;8.55;;;;;;;27.45;77.59;65901.66;5093517;28;20328;-61
2023/07/05 09:59:21;;;;;;;8.88;7.97;;;;;;;27.30;79.72;65885.53;5093529;28;20212;-64
2023/07/05 10:01:54;;;;;;;9.57;7.28;;;;;;;27.17;78.61;65871.09;5093595;28;20196;-59
2023/07/05 10:04:26;;;;;;;12.98;8.73;;;;;;;27.33;73.59;65888.88;5093434;28;20208;-60
2023/07/05 10:06:52;;;;;;;10.20;8.65;;;;;;;27.00;77.69;65852.19;5093177;28;20176;-58
2023/07/05 10:09:20;;;;;;;11.35;8.55;;;;;;;26.93;80.78;65844.38;5093247;28;20223;-58
2023/07/05 10:11:54;;;;;;;9.60;8.52;;;;;;;26.90;80.45;65835.88;5075035;28;20245;-58
2023/07/05 10:14:27;;;;;;;11.98;8.55;;;;;;;26.99;80.77;65848.47;5093175;28;20693;-59
2023/07/05 10:17:04;;;;;;;11.02;8.07;;;;;;;26.94;83.91;65846.06;5093036;28;20285;-59
2023/07/05 10:19:31;;;;;;;11.35;7.95;;;;;;;26.90;81.81;65841.06;5093430;28;20215;-58
2023/07/05 10:22:04;;;;;;;11.80;8.05;;;;;;;27.00;81.98;65852.19;5092989;28;20673;-59
2023/07/05 10:24:32;;;;;;;9.73;8.07;;;;;;;27.28;81.59;65880.72;5092809;28;20584;-63
2023/07/05 10:27:12;;;;;;;11.23;8.02;;;;;;;27.36;77.57;65889.63;5092661;28;20253;-63
2023/07/05 10:29:41;;;;;;;10.85;8.18;;;;;;;27.20;80.37;65872.38;5092915;28;20216;-61
2023/07/05 10:32:18;;;;;;;9.63;8.40;;;;;;;27.39;76.79;65893.50;5092777;28;20204;-63
2023/07/05 10:34:47;;;;;;;9.82;8.85;;;;;;;27.11;82.76;65864.41;5074484;28;20238;-60
2023/07/05 10:37:29;;;;;;;10.02;8.45;;;;;;;27.24;81.68;65876.25;5092845;28;20272;-61
2023/07/05 10:39:55;;;;;;;11.35;8.25;;;;;;;27.09;81.56;65859.59;5093139;28;20302;-62
2023/07/05 10:42:21;;;;;;;10.15;8.55;;;;;;;27.14;83.90;65867.72;5092559;28;20184;-61
2023/07/05 10:44:47;;;;;;;10.60;8.63;;;;;;;27.04;83.40;65854.03;5093034;28;20208;-59
2023/07/05 10:47:14;;;;;;;12.60;8.57;;;;;;;26.95;82.03;65846.59;5092417;28;20188;-58
2023/07/05 10:49:43;;;;;;;12.68;9.63;;;;;;;27.00;82.64;65852.19;5092366;28;20200;-59
2023/07/05 10:52:13;;;;;;;10.20;9.20;;;;;;;27.13;82.32;65862.00;5092553;28;20231;-60
2023/07/05 10:54:59;;;;;;;9.70;8.80;;;;;;;27.05;83.56;65858.28;5092753;28;20287;-64
2023/07/05 10:57:42;;;;;;;12.27;9.57;;;;;;;26.99;86.05;65848.47;5092547;28;20200;-63
2023/07/05 11:00:38;;;;;;;18.63;9.38;;;;;;;26.95;85.38;65846.59;5074379;28;20216;-64
2023/07/05 11:03:16;;;;;;;11.27;9.07;;;;;;;26.80;86.73;65830.50;5092226;28;20641;-64
2023/07/05 11:05:46;;;;;;;15.30;9.05;;;;;;;26.74;88.33;65823.28;5092797;28;20211;-63
2023/07/05 11:08:25;;;;;;;11.15;9.27;;;;;;;26.67;90.09;65813.44;5092372;28;20207;-63
2023/07/05 11:10:55;;;;;;;10.65;8.82;;;;;;;26.72;88.18;65821.06;5074871;28;20250;-64
2023/07/05 11:13:21;;;;;;;10.27;8.80;;;;;;;26.71;87.57;65820.50;5092091;28;20207;-65
2023/07/05 11:15:47;;;;;;;7.93;7.07;;;;;;;26.46;79.10;65793.25;5092554;28;20204;-63
2023/07/05 11:18:15;;;;;;;9.40;6.93;;;;;;;25.86;79.28;65726.59;5092043;28;20660;-64
2023/07/05 11:20:41;;;;;;;8.02;6.95;;;;;;;25.58;78.41;65692.91;5092515;28;20699;-63
2023/07/05 11:23:11;;;;;;;10.05;6.28;;;;;;;25.05;77.85;65639.78;5093265;28;20211;-58
2023/07/05 11:25:56;;;;;;;8.23;5.53;;;;;;;24.61;77.45;65585.78;5074008;28;20196;-58